createdAt,value
2023-04-16T00:00:29.632Z,460.14
2023-04-16T00:03:35.981Z,445.49
2023-04-16T00:06:46.110Z,456.96
2023-04-16T00:09:53.032Z,461.27
2023-04-16T00:12:59.865Z,438.17
2023-04-16T00:16:05.957Z,459.58
2023-04-16T00:19:12.716Z,490.71
2023-04-16T00:22:21.304Z,511.33
2023-04-16T00:25:28.111Z,527.90
2023-04-16T00:28:34.045Z,487.82
2023-04-16T00:31:41.271Z,436.99
2023-04-16T00:34:47.252Z,437.30
2023-04-16T00:37:56.629Z,443.24
2023-04-16T00:41:02.784Z,439.60
2023-04-16T00:44:09.647Z,430.11
2023-04-16T00:47:16.362Z,456.29
2023-04-16T00:50:23.480Z,503.46
2023-04-16T00:53:33.598Z,512.81
2023-04-16T00:56:41.828Z,492.54
2023-04-16T00:59:47.736Z,502.41
2023-04-16T01:02:55.499Z,488.45
2023-04-16T01:06:01.647Z,474.39
2023-04-16T01:09:11.528Z,449.96
2023-04-16T01:12:17.500Z,520.37
2023-04-16T01:15:24.338Z,481.24
2023-04-16T01:18:30.852Z,464.94
2023-04-16T01:21:40.175Z,421.90
2023-04-16T01:24:46.078Z,392.27
2023-04-16T01:27:55.194Z,381.05
2023-04-16T01:31:01.727Z,361.14
2023-04-16T01:34:18.791Z,355.31
2023-04-16T01:37:27.492Z,384.42
2023-04-16T01:40:34.425Z,377.70
2023-04-16T01:43:40.579Z,350.56
2023-04-16T01:46:48.028Z,342.84
2023-04-16T01:49:54.221Z,352.35
2023-04-16T01:53:05.370Z,362.32
2023-04-16T01:56:12.153Z,355.57
2023-04-16T01:59:18.086Z,369.74
2023-04-16T02:02:28.459Z,380.36
2023-04-16T02:05:34.454Z,392.45
2023-04-16T02:08:44.009Z,396.91
2023-04-16T02:11:49.949Z,365.78
2023-04-16T02:14:57.176Z,360.60
2023-04-16T02:18:06.646Z,373.36
2023-04-16T02:21:14.482Z,381.48
2023-04-16T02:24:24.871Z,394.67
2023-04-16T02:27:32.241Z,391.49
2023-04-16T02:30:50.578Z,383.98
2023-04-16T02:33:59.332Z,385.77
2023-04-16T02:37:05.311Z,384.02
2023-04-16T02:40:15.591Z,396.99
2023-04-16T02:43:21.864Z,434.56
2023-04-16T02:46:29.331Z,415.63
2023-04-16T02:49:36.110Z,414.59
2023-04-16T02:52:42.949Z,396.89
2023-04-16T02:55:57.906Z,387.38
2023-04-16T02:59:04.695Z,357.99
2023-04-16T03:02:11.298Z,350.32
2023-04-16T03:05:18.455Z,341.50
2023-04-16T03:08:29.657Z,323.82
2023-04-16T03:11:39.037Z,300.30
2023-04-16T03:14:45.045Z,285.69
2023-04-16T03:17:52.406Z,317.42
2023-04-16T03:20:58.282Z,388.97
2023-04-16T03:24:05.193Z,394.91
2023-04-16T03:27:14.397Z,379.96
2023-04-16T03:30:21.363Z,408.58
2023-04-16T03:33:29.337Z,380.59
2023-04-16T03:36:36.304Z,379.62
2023-04-16T03:39:42.575Z,391.62
2023-04-16T03:42:59.584Z,438.97
2023-04-16T03:46:09.389Z,464.01
2023-04-16T03:49:16.441Z,507.11
2023-04-16T03:52:22.923Z,497.26
2023-04-16T03:55:41.701Z,491.27
2023-04-16T03:58:52.683Z,455.35
2023-04-16T04:02:01.897Z,424.81
2023-04-16T04:05:08.913Z,396.03
2023-04-16T04:08:17.324Z,385.27
2023-04-16T04:11:23.718Z,390.19
2023-04-16T04:14:40.130Z,361.75
2023-04-16T04:17:46.670Z,348.80
2023-04-16T04:20:53.537Z,332.39
2023-04-16T04:24:03.698Z,322.01
2023-04-16T04:27:13.545Z,325.63
2023-04-16T04:30:22.444Z,312.62
2023-04-16T04:33:29.986Z,299.06
2023-04-16T04:36:36.000Z,314.08
2023-04-16T04:39:42.740Z,296.99
2023-04-16T04:42:48.882Z,254.81
2023-04-16T04:45:58.410Z,251.12
2023-04-16T04:49:14.118Z,251.44
2023-04-16T04:52:26.523Z,259.04
2023-04-16T04:55:32.432Z,272.43
2023-04-16T04:58:39.201Z,332.01
2023-04-16T05:01:47.857Z,487.48
2023-04-16T05:04:54.511Z,358.77
2023-04-16T05:08:00.528Z,301.56
2023-04-16T05:11:07.766Z,266.61
2023-04-16T05:14:13.695Z,238.41
2023-04-16T05:17:23.104Z,247.35
2023-04-16T05:20:28.972Z,254.72
2023-04-16T05:23:35.743Z,270.87
2023-04-16T05:26:41.765Z,302.23
2023-04-16T05:29:51.622Z,272.87
2023-04-16T05:33:00.266Z,247.39
2023-04-16T05:36:07.937Z,252.45
2023-04-16T05:39:14.251Z,241.47
2023-04-16T05:42:21.270Z,212.39
2023-04-16T05:45:28.124Z,195.57
2023-04-16T05:48:37.679Z,174.77
2023-04-16T05:51:43.754Z,172.68
2023-04-16T05:54:50.717Z,178.08
2023-04-16T05:57:56.648Z,170.56
2023-04-16T06:01:04.669Z,174.84
2023-04-16T06:04:13.474Z,174.02
2023-04-16T06:07:20.514Z,171.78
2023-04-16T06:10:26.842Z,193.38
2023-04-16T06:13:33.675Z,167.45
2023-04-16T06:16:39.575Z,137.30
2023-04-16T06:19:49.272Z,163.86
2023-04-16T06:22:55.233Z,227.90
2023-04-16T06:26:02.216Z,220.92
2023-04-16T06:29:11.070Z,212.61
2023-04-16T06:32:18.298Z,205.01
2023-04-16T06:35:28.229Z,210.69
2023-04-16T06:38:35.002Z,211.03
2023-04-16T06:41:41.229Z,247.00
2023-04-16T06:44:48.163Z,284.45
2023-04-16T06:47:54.233Z,260.08
2023-04-16T06:51:04.240Z,231.34
2023-04-16T06:54:12.445Z,213.99
2023-04-16T06:57:19.243Z,241.31
2023-04-16T07:00:25.525Z,252.27
2023-04-16T07:03:34.688Z,266.09
2023-04-16T07:06:43.833Z,195.62
2023-04-16T07:09:50.739Z,196.77
2023-04-16T07:13:04.533Z,185.10
2023-04-16T07:16:11.682Z,174.79
2023-04-16T07:19:17.755Z,149.47
2023-04-16T07:22:27.278Z,152.76
2023-04-16T07:25:35.470Z,160.14
2023-04-16T07:28:42.186Z,200.47
2023-04-16T07:31:49.432Z,152.40
2023-04-16T07:34:59.423Z,141.29
2023-04-16T07:38:10.970Z,141.94
2023-04-16T07:41:18.302Z,121.41
2023-04-16T07:44:24.322Z,119.57
2023-04-16T07:47:31.078Z,132.75
2023-04-16T07:50:37.164Z,151.14
2023-04-16T07:53:49.039Z,129.57
2023-04-16T07:56:55.694Z,121.82
2023-04-16T08:00:02.508Z,117.56
2023-04-16T08:03:19.112Z,125.29
2023-04-16T08:06:26.886Z,131.14
2023-04-16T08:09:36.169Z,136.60
2023-04-16T08:12:43.055Z,131.35
2023-04-16T08:15:50.680Z,137.01
2023-04-16T08:18:57.530Z,126.60
2023-04-16T08:22:05.021Z,138.76
2023-04-16T08:25:16.502Z,146.24
2023-04-16T08:28:22.501Z,125.79
2023-04-16T08:31:32.174Z,128.65
2023-04-16T08:34:38.445Z,117.78
2023-04-16T08:37:46.574Z,108.36
2023-04-16T08:41:06.009Z,101.47
2023-04-16T08:44:22.910Z,111.93
2023-04-16T08:47:39.833Z,113.16
2023-04-16T08:50:49.846Z,111.02
2023-04-16T08:54:07.468Z,105.95
2023-04-16T08:57:25.359Z,116.36
2023-04-16T09:00:34.839Z,99.04
2023-04-16T09:03:42.769Z,91.62
2023-04-16T09:06:51.618Z,86.95
2023-04-16T09:10:01.270Z,81.60
2023-04-16T09:13:30.847Z,83.94
2023-04-16T09:16:40.200Z,86.79
2023-04-16T09:19:54.983Z,86.27
2023-04-16T09:23:01.680Z,80.42
2023-04-16T09:26:09.461Z,76.63
2023-04-16T09:29:38.994Z,63.69
2023-04-16T09:32:45.419Z,69.05
2023-04-16T09:35:54.855Z,65.72
2023-04-16T09:39:01.189Z,65.95
2023-04-16T09:42:09.357Z,64.97
2023-04-16T09:45:22.292Z,67.52
2023-04-16T09:48:34.247Z,61.16
2023-04-16T09:51:46.310Z,56.56
2023-04-16T09:54:55.163Z,62.91
2023-04-16T09:58:05.785Z,67.08
2023-04-16T10:01:17.550Z,56.03
2023-04-16T10:04:27.280Z,53.86
2023-04-16T10:07:46.884Z,54.85
2023-04-16T10:10:53.182Z,64.90
2023-04-16T10:14:01.200Z,61.52
2023-04-16T10:17:15.448Z,57.64
2023-04-16T10:20:25.899Z,54.54
2023-04-16T10:23:32.703Z,51.22
2023-04-16T10:26:45.070Z,48.79
2023-04-16T10:29:53.459Z,56.56
2023-04-16T10:33:05.143Z,52.51
2023-04-16T10:36:14.050Z,43.05
2023-04-16T10:39:24.383Z,47.94
2023-04-16T10:42:30.808Z,45.33
2023-04-16T10:45:41.887Z,64.71
2023-04-16T10:48:51.120Z,50.39
2023-04-16T10:52:07.644Z,42.00
2023-04-16T10:55:21.157Z,40.90
2023-04-16T10:58:31.931Z,48.71
2023-04-16T11:01:44.371Z,41.00
2023-04-16T11:04:53.916Z,39.79
2023-04-16T11:08:16.718Z,38.95
2023-04-16T11:11:25.629Z,39.40
2023-04-16T11:14:32.413Z,41.77
2023-04-16T11:17:53.896Z,48.07
2023-04-16T11:21:03.499Z,51.85
2023-04-16T11:24:15.702Z,53.11
2023-04-16T11:27:21.658Z,55.78
2023-04-16T11:30:34.514Z,55.31
2023-04-16T11:33:41.796Z,54.79
2023-04-16T11:36:54.095Z,57.94
2023-04-16T11:40:00.477Z,56.03
2023-04-16T11:43:20.174Z,54.83
2023-04-16T11:46:27.772Z,66.52
2023-04-16T11:49:39.093Z,64.45
2023-04-16T11:52:47.834Z,64.24
2023-04-16T11:55:55.399Z,60.54
2023-04-16T11:59:21.031Z,55.43
2023-04-16T12:02:42.895Z,52.27
2023-04-16T12:05:49.080Z,59.17
2023-04-16T12:08:58.517Z,59.20
2023-04-16T12:12:04.490Z,61.02
2023-04-16T12:15:12.823Z,63.75
2023-04-16T12:18:19.732Z,63.84
2023-04-16T12:21:26.861Z,62.52
2023-04-16T12:24:37.205Z,60.20
2023-04-16T12:27:53.994Z,60.96
2023-04-16T12:31:00.325Z,61.00
2023-04-16T12:34:07.943Z,60.16
2023-04-16T12:37:15.210Z,58.62
2023-04-16T12:40:25.395Z,60.77
2023-04-16T12:43:31.368Z,59.99
2023-04-16T12:46:40.234Z,56.67
2023-04-16T12:49:46.228Z,53.50
2023-04-16T12:52:53.347Z,49.15
2023-04-16T12:56:02.065Z,50.22
2023-04-16T12:59:10.767Z,50.31
2023-04-16T13:02:17.166Z,47.76
2023-04-16T13:05:24.150Z,46.03
2023-04-16T13:08:30.323Z,46.30
2023-04-16T13:11:39.748Z,47.60
2023-04-16T13:14:45.680Z,53.68
2023-04-16T13:17:52.497Z,52.80
2023-04-16T13:20:58.966Z,49.51
2023-04-16T13:24:05.715Z,51.39
2023-04-16T13:27:16.387Z,51.18
2023-04-16T13:30:25.792Z,56.45
2023-04-16T13:33:32.101Z,50.72
2023-04-16T13:36:38.971Z,51.56
2023-04-16T13:39:45.592Z,51.69
2023-04-16T13:42:55.209Z,43.55
2023-04-16T13:46:01.685Z,43.81
2023-04-16T13:49:08.970Z,44.88
2023-04-16T13:52:15.222Z,46.19
2023-04-16T13:55:22.201Z,47.16
2023-04-16T13:58:30.849Z,42.86
2023-04-16T14:01:37.954Z,41.61
2023-04-16T14:04:44.000Z,41.43
2023-04-16T14:07:54.046Z,40.22
2023-04-16T14:11:01.642Z,42.37
2023-04-16T14:14:11.447Z,44.58
2023-04-16T14:17:17.415Z,46.15
2023-04-16T14:20:27.223Z,47.17
2023-04-16T14:23:33.468Z,51.85
2023-04-16T14:26:40.408Z,48.55
2023-04-16T14:29:49.541Z,48.97
2023-04-16T14:32:57.008Z,50.76
2023-04-16T14:36:03.588Z,50.62
2023-04-16T14:39:10.723Z,49.44
2023-04-16T14:42:16.770Z,47.07
2023-04-16T14:45:27.513Z,65.84
2023-04-16T14:48:33.744Z,72.07
2023-04-16T14:51:40.802Z,68.67
2023-04-16T14:54:48.143Z,78.40
2023-04-16T14:57:55.211Z,87.03
2023-04-16T15:01:04.377Z,65.72
2023-04-16T15:04:12.013Z,98.75
2023-04-16T15:07:21.558Z,56.29
2023-04-16T15:10:28.668Z,56.88
2023-04-16T15:13:36.673Z,56.59
2023-04-16T15:16:50.528Z,58.53
2023-04-16T15:19:56.831Z,82.36
2023-04-16T15:23:03.802Z,98.95
2023-04-16T15:26:10.015Z,105.53
2023-04-16T15:29:16.744Z,99.64
2023-04-16T15:32:25.639Z,115.96
2023-04-16T15:35:32.537Z,119.67
2023-04-16T15:38:39.626Z,111.73
2023-04-16T15:42:00.733Z,100.66
2023-04-16T15:45:08.987Z,110.93
2023-04-16T15:48:18.232Z,120.59
2023-04-16T15:51:24.353Z,119.44
2023-04-16T15:54:32.161Z,114.98
2023-04-16T15:57:38.263Z,116.57
2023-04-16T16:00:47.838Z,116.32
2023-04-16T16:03:56.821Z,108.79
2023-04-16T16:07:05.122Z,110.68
2023-04-16T16:10:13.523Z,126.87
2023-04-16T16:13:20.602Z,136.64
2023-04-16T16:16:26.600Z,130.89
2023-04-16T16:19:36.653Z,125.65
2023-04-16T16:22:45.535Z,309.05
2023-04-16T16:25:56.012Z,143.58
2023-04-16T16:29:02.308Z,125.80
2023-04-16T16:32:11.955Z,120.98
2023-04-16T16:35:26.522Z,115.70
2023-04-16T16:38:33.332Z,108.92
2023-04-16T16:41:42.350Z,105.80
2023-04-16T16:44:49.911Z,111.50
2023-04-16T16:47:56.949Z,107.73
2023-04-16T16:51:06.768Z,105.50
2023-04-16T16:54:12.766Z,113.75
2023-04-16T16:57:21.030Z,107.00
2023-04-16T17:00:27.913Z,107.69
2023-04-16T17:03:34.776Z,109.69
2023-04-16T17:06:43.588Z,112.30
2023-04-16T17:09:50.345Z,106.36
2023-04-16T17:12:56.336Z,110.98
2023-04-16T17:16:03.123Z,115.10
2023-04-16T17:19:09.437Z,117.82
2023-04-16T17:22:19.424Z,121.28
2023-04-16T17:25:25.408Z,121.06
2023-04-16T17:28:32.284Z,124.70
2023-04-16T17:31:45.242Z,126.77
2023-04-16T17:34:52.163Z,137.94
2023-04-16T17:38:06.736Z,148.33
2023-04-16T17:41:13.556Z,156.45
2023-04-16T17:44:19.470Z,170.99
2023-04-16T17:47:26.267Z,177.37
2023-04-16T17:50:32.312Z,177.30
2023-04-16T17:53:42.878Z,181.22
2023-04-16T17:56:49.195Z,199.82
2023-04-16T17:59:56.101Z,209.59
2023-04-16T18:03:05.245Z,222.23
2023-04-16T18:06:12.075Z,275.60
2023-04-16T18:09:27.084Z,279.41
2023-04-16T18:12:36.807Z,283.35
2023-04-16T18:15:42.962Z,274.90
2023-04-16T18:18:49.969Z,266.37
2023-04-16T18:21:56.066Z,248.21
2023-04-16T18:25:05.591Z,283.32
2023-04-16T18:28:14.056Z,317.67
2023-04-16T18:31:22.085Z,303.75
2023-04-16T18:34:31.605Z,290.71
2023-04-16T18:37:38.492Z,292.02
2023-04-16T18:40:47.303Z,297.53
2023-04-16T18:43:54.371Z,299.45
2023-04-16T18:47:00.351Z,282.20
2023-04-16T18:50:16.505Z,291.21
2023-04-16T18:53:22.732Z,282.52
2023-04-16T18:56:38.564Z,410.55
2023-04-16T18:59:44.564Z,384.65
2023-04-16T19:02:51.354Z,333.85
2023-04-16T19:05:57.636Z,327.05
2023-04-16T19:09:04.370Z,325.66
2023-04-16T19:12:13.201Z,400.17
2023-04-16T19:15:20.035Z,381.48
2023-04-16T19:18:26.336Z,618.51
2023-04-16T19:21:35.858Z,667.99
2023-04-16T19:24:41.886Z,416.52
2023-04-16T19:27:51.554Z,338.39
2023-04-16T19:30:58.788Z,335.56
2023-04-16T19:34:18.102Z,362.11
2023-04-16T19:37:24.023Z,752.94
2023-04-16T19:40:33.433Z,956.47
2023-04-16T19:43:42.164Z,956.35
2023-04-16T19:46:49.241Z,877.68
2023-04-16T19:49:55.824Z,844.11
2023-04-16T19:53:03.906Z,843.64
2023-04-16T19:56:10.082Z,871.70
2023-04-16T19:59:19.485Z,1037.34
2023-04-16T20:02:25.722Z,2433.10
2023-04-16T20:05:33.347Z,1576.81
2023-04-16T20:08:39.330Z,1426.56
2023-04-16T20:11:46.614Z,1478.73
2023-04-16T20:14:55.604Z,1635.88
2023-04-16T20:18:08.553Z,1692.02
2023-04-16T20:21:14.557Z,1403.09
2023-04-16T20:24:24.445Z,1125.05
2023-04-16T20:27:30.408Z,1016.31
2023-04-16T20:30:41.152Z,908.02
2023-04-16T20:33:47.317Z,999.96
2023-04-16T20:37:08.169Z,1096.51
2023-04-16T20:40:15.347Z,1020.17
2023-04-16T20:43:26.435Z,859.30
2023-04-16T20:46:39.633Z,817.53
2023-04-16T20:49:46.936Z,667.88
2023-04-16T20:52:53.480Z,677.74
2023-04-16T20:56:00.785Z,849.82
2023-04-16T20:59:15.656Z,880.47
2023-04-16T21:02:31.152Z,819.04
2023-04-16T21:05:37.226Z,910.19
2023-04-16T21:08:43.938Z,887.17
2023-04-16T21:11:49.941Z,844.62
2023-04-16T21:14:57.478Z,861.64
2023-04-16T21:18:06.194Z,936.79
2023-04-16T21:21:13.111Z,687.02
2023-04-16T21:24:19.190Z,613.31
2023-04-16T21:27:26.090Z,697.58
2023-04-16T21:30:32.741Z,574.82
2023-04-16T21:33:44.633Z,633.57
2023-04-16T21:36:50.621Z,809.71
2023-04-16T21:39:57.655Z,824.56
2023-04-16T21:43:03.679Z,816.66
2023-04-16T21:46:10.572Z,736.29
2023-04-16T21:49:19.374Z,926.20
2023-04-16T21:52:26.824Z,765.90
2023-04-16T21:55:32.766Z,807.87
2023-04-16T21:58:39.666Z,738.80
2023-04-16T22:01:45.601Z,574.22
2023-04-16T22:04:55.066Z,509.44
2023-04-16T22:08:04.028Z,551.97
2023-04-16T22:11:17.670Z,571.68
2023-04-16T22:14:23.581Z,523.33
2023-04-16T22:17:30.635Z,457.03
2023-04-16T22:20:49.002Z,439.27
2023-04-16T22:23:55.774Z,435.02
2023-04-16T22:27:01.689Z,465.24
2023-04-16T22:30:10.550Z,444.40
2023-04-16T22:33:16.637Z,406.59
2023-04-16T22:36:26.723Z,393.12
2023-04-16T22:39:32.609Z,379.33
2023-04-16T22:42:39.238Z,304.08
2023-04-16T22:45:46.592Z,261.84
2023-04-16T22:48:53.422Z,215.13
2023-04-16T22:52:05.170Z,202.44
2023-04-16T22:55:17.625Z,183.33
2023-04-16T22:58:23.688Z,181.86
2023-04-16T23:01:34.171Z,170.41
2023-04-16T23:04:40.106Z,165.41
2023-04-16T23:07:49.495Z,185.85
2023-04-16T23:10:55.655Z,176.75
2023-04-16T23:14:02.798Z,151.75
2023-04-16T23:17:08.654Z,153.21
2023-04-16T23:20:16.269Z,155.07
2023-04-16T23:23:32.086Z,151.53
2023-04-16T23:26:42.907Z,156.89
2023-04-16T23:29:48.936Z,154.59
2023-04-16T23:32:55.845Z,159.60
2023-04-16T23:36:01.959Z,177.32
2023-04-16T23:39:11.932Z,228.85
2023-04-16T23:42:22.834Z,288.42
2023-04-16T23:45:29.700Z,267.13
2023-04-16T23:48:35.718Z,271.84
2023-04-16T23:51:42.387Z,297.15
2023-04-16T23:54:55.753Z,273.12
2023-04-16T23:58:02.473Z,278.47
